Oreana, Idaho
Current Conditions -  °F | °C
As of 9:55 AM on Saturday 22 Nov 2014 (Local Time) from KMAN Reporting Station
Scattered Clouds Scattered Clouds  
Wind Chill: 36°   Ceiling: Unl
Heat Index: 41°   Visibility: 10mi
Dew Point: 41°   Wind: 7mph
Humidity: 100%   Direction: 290°WNW
Pressure: 29.74"   Gusts: NA
Location:  42.9915°N, 116.705°W
Report Text: KMAN 221655Z AUTO 29006KT 10SM SCT090 05/05 A2974 RMK AO1
Loading
Personal Weather Stations






























Interactive Weather Map New forecast layout! Learn more

10-Day Weather Forecast

Advertisements
Track Severe Weather on mobile